Ana Sayfa
METAR-TAF:

METAR-TAF

Havaalanları :

Fort George G. Meade, Maryland, Amerika Birleşik Devletleri

Enlem: 39-05N, Boylam: 076-46W, yükseklik: 46 m

Güncel hava durumu gözlemi

Rapor saat 14:55 UTC de 24 dakika önce yapıldı.
Rüzgar batıdan 8 kt
Sıcaklık 19°C
Nem 60%
Basınç 1021 hPa
Görüş mesafesi: 16.1 km
Açık gökyüzü

METAR: KFME 241455Z AUTO 28008KT 10SM CLR 19/11 A3014 RMK AO1

Saat: 11:19 (15:19 UTC)


TAF: eksik

4.000'den fazla havaalanı için hava durumu gözlemleri ve tahminleri (METAR ve TAF raporları).

Kullanılabilir istasyonlar harita üzerinde sarı ve kırmızı noktalarla gösterilir.

İstasyonun adını görmek için fareyi noktanın üzerinde gezdirin.

Sonrasında hava gözlem ve tahminlerini görmek için tıklayın.

Haritayı değiştirmek için: yaklaştırmak için siyah artı işaretli yeşil düğmeye ve uzaklaştırmak için de eksi işaretli düğmeye hızla tıklayın; bitişik haritalar için yeşil okları kullanın.


METAR-TAF: